VUN1 YSSY-YBAS
Flight info
| Callsign | VUN1 |
|---|---|
| Flight time | N/A |
| Altitude | 32000 |
| Route | KADOM A576 AS |
| Aircraft | A400/H-SDE2E3FGHIJ4J5M1RWXY/LB1D1 |
Departure
| Time | 2026-05-04 02:51 |
|---|---|
| Airport | Sydney Kingsford Smith International Airport (YSSY) |
Arrival
| Time | N/A |
|---|---|
| Airport | Alice Springs Airport (YBAS) |
| Time | Latitude | Longitude | Altitude | Speed | Heading |
|---|---|---|---|---|---|
| 2026-05-04 02:05 | -33.94453 | 151.17239 | 37 ft | 0 kts | 161° |
| 2026-05-04 02:35 | -33.94452 | 151.17239 | 37 ft | 2 kts | 161° |
| 2026-05-04 02:35 | -33.94437 | 151.17233 | 35 ft | 2 kts | 162° |
| 2026-05-04 02:35 | -33.94421 | 151.17227 | 35 ft | 2 kts | 164° |
| 2026-05-04 02:36 | -33.94405 | 151.17222 | 35 ft | 2 kts | 165° |
| 2026-05-04 02:36 | -33.94390 | 151.17216 | 33 ft | 2 kts | 153° |
| 2026-05-04 02:36 | -33.94378 | 151.17205 | 36 ft | 2 kts | 124° |
| 2026-05-04 02:36 | -33.94372 | 151.17195 | 37 ft | 1 kts | 128° |
| 2026-05-04 02:37 | -33.94366 | 151.17183 | 37 ft | 2 kts | 105° |
| 2026-05-04 02:37 | -33.94364 | 151.17168 | 37 ft | 1 kts | 79° |
| 2026-05-04 02:37 | -33.94367 | 151.17154 | 35 ft | 1 kts | 72° |
| 2026-05-04 02:37 | -33.94368 | 151.17148 | 35 ft | 0 kts | 72° |
| 2026-05-04 02:38 | -33.94369 | 151.17147 | 35 ft | 0 kts | 72° |
| 2026-05-04 02:38 | -33.94369 | 151.17148 | 35 ft | 0 kts | 72° |
| 2026-05-04 02:38 | -33.94368 | 151.17149 | 32 ft | 0 kts | 72° |
| 2026-05-04 02:46 | -33.94367 | 151.17154 | 35 ft | 3 kts | 74° |
| 2026-05-04 02:46 | -33.94352 | 151.17211 | 35 ft | 12 kts | 73° |
| 2026-05-04 02:46 | -33.94332 | 151.17316 | 34 ft | 13 kts | 86° |
| 2026-05-04 02:46 | -33.94366 | 151.17346 | 35 ft | 13 kts | 174° |
| 2026-05-04 02:47 | -33.94495 | 151.17367 | 35 ft | 20 kts | 170° |
| 2026-05-04 02:47 | -33.94639 | 151.17399 | 34 ft | 20 kts | 166° |
| 2026-05-04 02:47 | -33.94782 | 151.17432 | 33 ft | 22 kts | 169° |
| 2026-05-04 02:47 | -33.94941 | 151.17475 | 29 ft | 24 kts | 169° |
| 2026-05-04 02:48 | -33.95102 | 151.17518 | 29 ft | 23 kts | 166° |
| 2026-05-04 02:48 | -33.95245 | 151.17573 | 27 ft | 17 kts | 126° |
| 2026-05-04 02:48 | -33.95264 | 151.17620 | 29 ft | 0 kts | 81° |
| 2026-05-04 02:50 | -33.95254 | 151.17680 | 31 ft | 14 kts | 75° |
| 2026-05-04 02:51 | -33.95127 | 151.17736 | 29 ft | 49 kts | 356° |
| 2026-05-04 02:51 | -33.94729 | 151.17631 | 32 ft | 88 kts | 347° |
| 2026-05-04 02:51 | -33.93798 | 151.17377 | 117 ft | 168 kts | 349° |
| 2026-05-04 02:51 | -33.92589 | 151.17093 | 753 ft | 185 kts | 348° |
| 2026-05-04 02:52 | -33.91301 | 151.16488 | 1312 ft | 214 kts | 325° |
| 2026-05-04 02:52 | -33.90343 | 151.15014 | 1858 ft | 240 kts | 296° |
| 2026-05-04 02:52 | -33.89786 | 151.13047 | 2553 ft | 255 kts | 281° |
| 2026-05-04 02:52 | -33.89927 | 151.10915 | 2973 ft | 259 kts | 261° |
| 2026-05-04 02:53 | -33.90615 | 151.08917 | 2958 ft | 260 kts | 249° |
| 2026-05-04 02:53 | -33.91515 | 151.07030 | 2934 ft | 259 kts | 242° |
| 2026-05-04 02:53 | -33.92392 | 151.05138 | 2949 ft | 258 kts | 249° |
| 2026-05-04 02:53 | -33.92652 | 151.03108 | 3144 ft | 242 kts | 287° |
| 2026-05-04 02:54 | -33.92039 | 151.01266 | 3662 ft | 234 kts | 294° |
| 2026-05-04 02:54 | -33.91499 | 150.99490 | 5195 ft | 219 kts | 294° |
| 2026-05-04 02:54 | -33.90988 | 150.97809 | 6724 ft | 211 kts | 294° |
| 2026-05-04 02:54 | -33.90482 | 150.96095 | 7702 ft | 231 kts | 292° |
| 2026-05-04 02:55 | -33.89323 | 150.92197 | 9054 ft | 257 kts | 294° |
| 2026-05-04 02:55 | -33.88699 | 150.90152 | 9856 ft | 263 kts | 292° |
| 2026-05-04 02:55 | -33.88076 | 150.88038 | 10306 ft | 273 kts | 292° |
| 2026-05-04 02:56 | -33.87441 | 150.85851 | 10413 ft | 280 kts | 292° |
| 2026-05-04 02:56 | -33.86802 | 150.83627 | 10226 ft | 281 kts | 292° |
| 2026-05-04 02:56 | -33.86167 | 150.81412 | 9997 ft | 280 kts | 292° |
| 2026-05-04 02:56 | -33.85548 | 150.79231 | 9874 ft | 265 kts | 287° |
| 2026-05-04 02:57 | -33.84980 | 150.77154 | 10405 ft | 265 kts | 291° |
| 2026-05-04 02:57 | -33.84363 | 150.75001 | 10747 ft | 278 kts | 292° |
| 2026-05-04 02:57 | -33.83720 | 150.72830 | 10786 ft | 279 kts | 292° |
| 2026-05-04 02:57 | -33.83066 | 150.70637 | 10790 ft | 279 kts | 292° |
| 2026-05-04 02:58 | -33.82413 | 150.68445 | 10789 ft | 278 kts | 292° |
| 2026-05-04 02:58 | -33.81763 | 150.66249 | 10793 ft | 278 kts | 292° |
| 2026-05-04 02:58 | -33.81117 | 150.64055 | 10790 ft | 278 kts | 292° |
| 2026-05-04 02:58 | -33.80472 | 150.61857 | 10790 ft | 278 kts | 292° |
| 2026-05-04 02:59 | -33.79829 | 150.59665 | 10790 ft | 278 kts | 292° |
| 2026-05-04 02:59 | -33.79185 | 150.57470 | 10784 ft | 278 kts | 292° |
| 2026-05-04 02:59 | -33.78540 | 150.55276 | 10788 ft | 278 kts | 292° |
| 2026-05-04 02:59 | -33.77897 | 150.53085 | 10789 ft | 278 kts | 292° |
| 2026-05-04 03:00 | -33.77259 | 150.50888 | 10834 ft | 276 kts | 288° |
| 2026-05-04 03:00 | -33.76649 | 150.48737 | 11722 ft | 269 kts | 293° |
| 2026-05-04 03:00 | -33.76061 | 150.46609 | 12935 ft | 268 kts | 292° |
| 2026-05-04 03:00 | -33.75453 | 150.44470 | 13951 ft | 278 kts | 291° |
| 2026-05-04 03:01 | -33.74813 | 150.42224 | 14638 ft | 289 kts | 292° |
| 2026-05-04 03:01 | -33.74148 | 150.39916 | 15377 ft | 295 kts | 292° |
| 2026-05-04 03:01 | -33.73454 | 150.37573 | 16074 ft | 300 kts | 293° |
| 2026-05-04 03:01 | -33.72726 | 150.35216 | 16669 ft | 301 kts | 294° |
| 2026-05-04 03:02 | -33.71986 | 150.32846 | 17179 ft | 305 kts | 294° |
| 2026-05-04 03:02 | -33.71242 | 150.30434 | 17532 ft | 310 kts | 293° |
| 2026-05-04 03:02 | -33.70524 | 150.27967 | 18347 ft | 315 kts | 292° |
| 2026-05-04 03:02 | -33.69839 | 150.25499 | 19231 ft | 316 kts | 292° |
| 2026-05-04 03:03 | -33.69156 | 150.22982 | 20123 ft | 317 kts | 291° |
| 2026-05-04 03:03 | -33.68477 | 150.20454 | 20999 ft | 320 kts | 291° |
| 2026-05-04 03:03 | -33.67792 | 150.17903 | 21869 ft | 323 kts | 290° |
| 2026-05-04 03:03 | -33.67098 | 150.15332 | 22794 ft | 323 kts | 290° |
| 2026-05-04 03:04 | -33.66399 | 150.12750 | 23634 ft | 326 kts | 290° |
| 2026-05-04 03:04 | -33.65932 | 150.11030 | 24057 ft | 328 kts | 290° |
| 2026-05-04 03:04 | -33.64975 | 150.07523 | 24937 ft | 332 kts | 291° |
| 2026-05-04 03:04 | -33.64253 | 150.04880 | 25556 ft | 334 kts | 291° |
| 2026-05-04 03:05 | -33.63772 | 150.03121 | 25951 ft | 335 kts | 291° |
| 2026-05-04 03:05 | -33.62795 | 149.99553 | 26730 ft | 338 kts | 291° |
| 2026-05-04 03:05 | -33.62307 | 149.97774 | 27087 ft | 340 kts | 291° |
| 2026-05-04 03:05 | -33.61566 | 149.95070 | 27635 ft | 342 kts | 292° |
| 2026-05-04 03:06 | -33.60822 | 149.92360 | 28154 ft | 344 kts | 292° |
| 2026-05-04 03:06 | -33.60072 | 149.89628 | 28680 ft | 346 kts | 292° |
| 2026-05-04 03:06 | -33.59315 | 149.86875 | 29168 ft | 348 kts | 291° |
| 2026-05-04 03:06 | -33.58552 | 149.84104 | 29590 ft | 350 kts | 291° |
| 2026-05-04 03:07 | -33.57785 | 149.81319 | 30001 ft | 352 kts | 291° |
| 2026-05-04 03:07 | -33.57017 | 149.78531 | 30474 ft | 351 kts | 291° |
| 2026-05-04 03:07 | -33.56260 | 149.75786 | 30994 ft | 348 kts | 291° |
| 2026-05-04 03:07 | -33.55504 | 149.73041 | 31537 ft | 344 kts | 291° |
| 2026-05-04 03:08 | -33.54753 | 149.70323 | 31935 ft | 344 kts | 291° |
| 2026-05-04 03:08 | -33.53997 | 149.67593 | 32037 ft | 345 kts | 291° |
| 2026-05-04 03:08 | -33.53242 | 149.64871 | 32044 ft | 344 kts | 291° |
| 2026-05-04 03:09 | -33.51743 | 149.59472 | 32061 ft | 343 kts | 290° |
| 2026-05-04 03:09 | -33.50234 | 149.54048 | 32046 ft | 343 kts | 291° |
| 2026-05-04 03:10 | -33.48724 | 149.48627 | 32049 ft | 343 kts | 291° |
| 2026-05-04 03:10 | -33.47212 | 149.43212 | 32049 ft | 343 kts | 291° |
| 2026-05-04 03:11 | -33.45734 | 149.37926 | 32049 ft | 343 kts | 291° |
| 2026-05-04 03:11 | -33.44218 | 149.32514 | 32047 ft | 343 kts | 291° |
| 2026-05-04 03:12 | -33.42697 | 149.27098 | 32046 ft | 343 kts | 291° |
| 2026-05-04 03:12 | -33.41177 | 149.21691 | 32051 ft | 343 kts | 291° |
| 2026-05-04 03:13 | -33.39654 | 149.16286 | 32051 ft | 343 kts | 291° |
| 2026-05-04 03:13 | -33.38129 | 149.10884 | 32050 ft | 343 kts | 291° |
| 2026-05-04 03:14 | -33.36601 | 149.05481 | 32048 ft | 343 kts | 291° |
| 2026-05-04 03:14 | -33.35080 | 149.00115 | 32050 ft | 342 kts | 291° |
| 2026-05-04 03:15 | -33.33535 | 148.94676 | 32050 ft | 349 kts | 291° |
| 2026-05-04 03:15 | -33.31966 | 148.89163 | 32043 ft | 351 kts | 291° |
| 2026-05-04 03:16 | -33.30391 | 148.83633 | 32044 ft | 351 kts | 291° |
| 2026-05-04 03:16 | -33.28813 | 148.78105 | 32047 ft | 351 kts | 291° |
| 2026-05-04 03:17 | -33.27234 | 148.72584 | 32041 ft | 351 kts | 291° |
| 2026-05-04 03:17 | -33.25658 | 148.67086 | 32041 ft | 352 kts | 291° |
| 2026-05-04 03:18 | -33.24070 | 148.61557 | 32046 ft | 352 kts | 291° |
| 2026-05-04 03:18 | -33.22482 | 148.56035 | 32041 ft | 351 kts | 291° |
| 2026-05-04 03:19 | -33.20889 | 148.50510 | 32044 ft | 351 kts | 291° |
| 2026-05-04 03:19 | -33.19297 | 148.44997 | 32044 ft | 351 kts | 291° |
| 2026-05-04 03:20 | -33.17707 | 148.39502 | 32044 ft | 350 kts | 291° |
| 2026-05-04 03:20 | -33.16113 | 148.34004 | 32050 ft | 350 kts | 291° |
| 2026-05-04 03:21 | -33.14528 | 148.28549 | 32047 ft | 350 kts | 291° |
| 2026-05-04 03:21 | -33.12675 | 148.23187 | 32048 ft | 348 kts | 299° |
| 2026-05-04 03:22 | -33.10189 | 148.18238 | 32054 ft | 348 kts | 303° |
| 2026-05-04 03:22 | -33.07574 | 148.13401 | 32052 ft | 346 kts | 303° |
| 2026-05-04 03:23 | -33.04958 | 148.08624 | 32043 ft | 346 kts | 303° |
| 2026-05-04 03:23 | -33.02399 | 148.03938 | 32060 ft | 346 kts | 303° |
| 2026-05-04 03:24 | -32.99783 | 147.99133 | 32050 ft | 346 kts | 303° |
| 2026-05-04 03:24 | -32.97161 | 147.94317 | 32060 ft | 346 kts | 303° |
| 2026-05-04 03:25 | -32.94820 | 147.90020 | 32048 ft | 345 kts | 303° |
| 2026-05-04 03:25 | -32.92206 | 147.85231 | 32057 ft | 345 kts | 303° |
| 2026-05-04 03:26 | -32.89589 | 147.80442 | 32053 ft | 345 kts | 303° |
| 2026-05-04 03:26 | -32.86969 | 147.75653 | 32056 ft | 345 kts | 303° |
| 2026-05-04 03:27 | -32.84367 | 147.70904 | 32054 ft | 345 kts | 303° |
| 2026-05-04 03:27 | -32.81747 | 147.66128 | 32058 ft | 345 kts | 303° |
| 2026-05-04 03:28 | -32.79124 | 147.61354 | 32056 ft | 343 kts | 303° |
| 2026-05-04 03:28 | -32.76513 | 147.56607 | 32060 ft | 342 kts | 303° |
| 2026-05-04 03:29 | -32.73906 | 147.51874 | 32059 ft | 342 kts | 303° |
| 2026-05-04 03:29 | -32.71298 | 147.47144 | 32059 ft | 342 kts | 303° |
| 2026-05-04 03:30 | -32.68691 | 147.42422 | 32058 ft | 342 kts | 303° |
| 2026-05-04 03:30 | -32.66094 | 147.37724 | 32074 ft | 342 kts | 303° |
| 2026-05-04 03:31 | -32.63486 | 147.33012 | 32059 ft | 340 kts | 303° |
| 2026-05-04 03:31 | -32.60883 | 147.28316 | 32058 ft | 340 kts | 303° |
| 2026-05-04 03:32 | -32.58278 | 147.23621 | 32056 ft | 340 kts | 303° |
| 2026-05-04 03:32 | -32.55671 | 147.18928 | 32055 ft | 341 kts | 303° |
| 2026-05-04 03:33 | -32.53064 | 147.14243 | 32058 ft | 341 kts | 303° |
| 2026-05-04 03:33 | -32.50455 | 147.09558 | 32068 ft | 340 kts | 303° |
| 2026-05-04 03:34 | -32.47845 | 147.04877 | 32056 ft | 340 kts | 303° |
| 2026-05-04 03:34 | -32.45254 | 147.00238 | 32056 ft | 340 kts | 303° |
| 2026-05-04 03:35 | -32.42642 | 146.95566 | 32055 ft | 340 kts | 303° |
| 2026-05-04 03:35 | -32.40031 | 146.90901 | 32056 ft | 340 kts | 303° |
| 2026-05-04 03:36 | -32.37417 | 146.86237 | 32057 ft | 340 kts | 303° |
| 2026-05-04 03:36 | -32.34804 | 146.81579 | 32056 ft | 340 kts | 303° |
| 2026-05-04 03:37 | -32.32184 | 146.76917 | 32054 ft | 340 kts | 303° |
| 2026-05-04 03:37 | -32.29564 | 146.72259 | 32053 ft | 340 kts | 303° |
| 2026-05-04 03:38 | -32.26956 | 146.67629 | 32055 ft | 340 kts | 303° |
| 2026-05-04 03:38 | -32.24331 | 146.62974 | 32052 ft | 340 kts | 303° |
| 2026-05-04 03:39 | -32.21707 | 146.58326 | 32055 ft | 340 kts | 303° |
| 2026-05-04 03:39 | -32.19079 | 146.53677 | 32056 ft | 340 kts | 303° |
| 2026-05-04 03:40 | -32.16453 | 146.49037 | 32053 ft | 340 kts | 303° |
| 2026-05-04 03:41 | -32.11189 | 146.39753 | 32053 ft | 340 kts | 303° |
| 2026-05-04 03:41 | -32.08556 | 146.35119 | 32058 ft | 339 kts | 303° |
| 2026-05-04 03:42 | -32.05931 | 146.30503 | 32057 ft | 339 kts | 303° |
| 2026-05-04 03:42 | -32.03303 | 146.25888 | 32053 ft | 339 kts | 303° |
| 2026-05-04 03:43 | -32.00672 | 146.21272 | 32057 ft | 339 kts | 303° |
| 2026-05-04 03:43 | -31.98038 | 146.16658 | 32058 ft | 339 kts | 303° |
| 2026-05-04 03:44 | -31.95403 | 146.12047 | 32054 ft | 339 kts | 303° |
| 2026-05-04 03:44 | -31.92780 | 146.07463 | 32058 ft | 339 kts | 303° |
| 2026-05-04 03:45 | -31.90140 | 146.02854 | 32055 ft | 339 kts | 304° |
| 2026-05-04 03:45 | -31.87493 | 145.98240 | 32060 ft | 340 kts | 303° |
| 2026-05-04 03:46 | -31.84845 | 145.93629 | 32053 ft | 340 kts | 304° |
| 2026-05-04 03:46 | -31.82197 | 145.89023 | 32057 ft | 340 kts | 304° |
| 2026-05-04 03:47 | -31.79550 | 145.84424 | 32055 ft | 340 kts | 304° |
| 2026-05-04 03:47 | -31.76917 | 145.79856 | 32062 ft | 340 kts | 304° |
| 2026-05-04 03:48 | -31.74257 | 145.75246 | 32060 ft | 340 kts | 304° |
| 2026-05-04 03:48 | -31.71602 | 145.70651 | 32060 ft | 340 kts | 304° |
| 2026-05-04 03:49 | -31.68961 | 145.66084 | 32062 ft | 340 kts | 304° |
| 2026-05-04 03:49 | -31.66298 | 145.61486 | 32059 ft | 340 kts | 304° |
| 2026-05-04 03:50 | -31.63634 | 145.56891 | 32061 ft | 340 kts | 304° |
| 2026-05-04 03:50 | -31.61420 | 145.53077 | 32043 ft | 340 kts | 304° |
| 2026-05-04 03:51 | -31.58759 | 145.48497 | 32067 ft | 339 kts | 304° |
| 2026-05-04 03:51 | -31.56119 | 145.43958 | 32060 ft | 338 kts | 304° |
| 2026-05-04 03:52 | -31.53462 | 145.39397 | 32062 ft | 338 kts | 304° |
| 2026-05-04 03:52 | -31.50795 | 145.34822 | 32065 ft | 338 kts | 304° |
| 2026-05-04 03:53 | -31.48149 | 145.30289 | 32063 ft | 338 kts | 304° |
| 2026-05-04 03:53 | -31.45487 | 145.25735 | 32070 ft | 338 kts | 304° |
| 2026-05-04 03:54 | -31.42829 | 145.21192 | 32059 ft | 338 kts | 304° |
| 2026-05-04 03:54 | -31.40167 | 145.16649 | 32078 ft | 338 kts | 304° |
| 2026-05-04 03:55 | -31.37516 | 145.12129 | 32074 ft | 338 kts | 304° |
| 2026-05-04 03:55 | -31.34847 | 145.07583 | 32072 ft | 338 kts | 304° |
| 2026-05-04 03:56 | -31.32194 | 145.03070 | 32071 ft | 338 kts | 304° |
| 2026-05-04 03:56 | -31.29527 | 144.98539 | 32062 ft | 338 kts | 304° |
| 2026-05-04 03:57 | -31.26848 | 144.93993 | 32069 ft | 338 kts | 304° |
| 2026-05-04 03:57 | -31.24202 | 144.89507 | 32068 ft | 338 kts | 304° |
| 2026-05-04 03:58 | -31.20176 | 144.82693 | 32066 ft | 338 kts | 304° |
| 2026-05-04 03:58 | -31.17512 | 144.78190 | 32081 ft | 338 kts | 304° |
| 2026-05-04 03:59 | -31.14823 | 144.73651 | 32074 ft | 339 kts | 304° |
| 2026-05-04 03:59 | -31.12138 | 144.69123 | 32075 ft | 338 kts | 304° |
| 2026-05-04 04:00 | -31.09467 | 144.64625 | 32076 ft | 336 kts | 304° |
| 2026-05-04 04:00 | -31.06805 | 144.60145 | 32078 ft | 336 kts | 304° |
| 2026-05-04 04:01 | -31.04141 | 144.55669 | 32074 ft | 336 kts | 304° |
| 2026-05-04 04:01 | -31.01490 | 144.51219 | 32078 ft | 336 kts | 304° |
| 2026-05-04 04:02 | -30.98818 | 144.46739 | 32074 ft | 337 kts | 304° |
| 2026-05-04 04:02 | -30.96137 | 144.42248 | 32075 ft | 337 kts | 304° |
| 2026-05-04 04:03 | -30.93460 | 144.37769 | 32072 ft | 337 kts | 304° |
| 2026-05-04 04:03 | -30.90777 | 144.33286 | 32074 ft | 337 kts | 304° |
| 2026-05-04 04:04 | -30.88092 | 144.28805 | 32072 ft | 337 kts | 304° |
| 2026-05-04 04:04 | -30.85428 | 144.24364 | 32079 ft | 337 kts | 304° |
| 2026-05-04 04:05 | -30.82732 | 144.19874 | 32076 ft | 338 kts | 304° |
| 2026-05-04 04:05 | -30.80042 | 144.15401 | 32080 ft | 338 kts | 304° |
| 2026-05-04 04:06 | -30.77346 | 144.10920 | 32081 ft | 338 kts | 304° |
| 2026-05-04 04:06 | -30.74662 | 144.06466 | 32080 ft | 338 kts | 304° |
| 2026-05-04 04:07 | -30.71961 | 144.01987 | 32079 ft | 338 kts | 304° |
| 2026-05-04 04:07 | -30.69260 | 143.97514 | 32082 ft | 338 kts | 304° |
| 2026-05-04 04:08 | -30.66572 | 143.93068 | 32079 ft | 338 kts | 304° |
| 2026-05-04 04:08 | -30.63866 | 143.88598 | 32070 ft | 338 kts | 304° |
| 2026-05-04 04:09 | -30.61175 | 143.84157 | 32079 ft | 335 kts | 304° |
| 2026-05-04 04:09 | -30.58495 | 143.79739 | 32081 ft | 334 kts | 304° |
| 2026-05-04 04:10 | -30.55838 | 143.75364 | 32090 ft | 334 kts | 304° |
| 2026-05-04 04:10 | -30.53151 | 143.70944 | 32086 ft | 335 kts | 304° |
| 2026-05-04 04:11 | -30.50472 | 143.66542 | 32083 ft | 335 kts | 304° |
| 2026-05-04 04:11 | -30.47773 | 143.62112 | 32087 ft | 335 kts | 304° |
| 2026-05-04 04:12 | -30.45077 | 143.57693 | 32086 ft | 335 kts | 304° |
| 2026-05-04 04:12 | -30.42380 | 143.53275 | 32086 ft | 335 kts | 304° |
| 2026-05-04 04:13 | -30.39694 | 143.48881 | 32091 ft | 336 kts | 304° |
| 2026-05-04 04:13 | -30.36993 | 143.44469 | 32086 ft | 336 kts | 304° |
| 2026-05-04 04:14 | -30.34283 | 143.40045 | 32087 ft | 336 kts | 304° |
| 2026-05-04 04:14 | -30.31592 | 143.35657 | 32087 ft | 336 kts | 304° |
| 2026-05-04 04:15 | -30.28883 | 143.31246 | 32089 ft | 336 kts | 304° |
| 2026-05-04 04:15 | -30.26176 | 143.26842 | 32088 ft | 336 kts | 304° |
| 2026-05-04 04:16 | -30.23467 | 143.22440 | 32093 ft | 336 kts | 304° |
| 2026-05-04 04:16 | -30.20754 | 143.18035 | 32093 ft | 336 kts | 304° |
| 2026-05-04 04:17 | -30.18043 | 143.13641 | 32097 ft | 336 kts | 304° |
| 2026-05-04 04:17 | -30.15324 | 143.09238 | 32096 ft | 336 kts | 304° |
| 2026-05-04 04:18 | -30.12617 | 143.04861 | 32097 ft | 336 kts | 304° |
| 2026-05-04 04:18 | -30.09893 | 143.00463 | 32103 ft | 336 kts | 304° |
| 2026-05-04 04:19 | -30.07165 | 142.96063 | 32099 ft | 338 kts | 304° |
| 2026-05-04 04:19 | -30.04421 | 142.91643 | 32103 ft | 338 kts | 304° |
| 2026-05-04 04:20 | -30.01691 | 142.87247 | 32101 ft | 338 kts | 304° |
| 2026-05-04 04:20 | -29.98953 | 142.82846 | 32102 ft | 338 kts | 304° |
| 2026-05-04 04:21 | -29.96209 | 142.78438 | 32100 ft | 338 kts | 304° |
| 2026-05-04 04:21 | -29.93474 | 142.74051 | 32104 ft | 339 kts | 304° |
| 2026-05-04 04:22 | -29.90720 | 142.69638 | 32104 ft | 339 kts | 304° |
| 2026-05-04 04:22 | -29.87962 | 142.65223 | 32103 ft | 339 kts | 304° |
| 2026-05-04 04:23 | -29.85203 | 142.60814 | 32108 ft | 339 kts | 305° |
| 2026-05-04 04:23 | -29.82456 | 142.56430 | 32104 ft | 339 kts | 305° |
| 2026-05-04 04:24 | -29.79694 | 142.52025 | 32107 ft | 339 kts | 305° |
| 2026-05-04 04:24 | -29.76919 | 142.47605 | 32105 ft | 341 kts | 305° |
| 2026-05-04 04:25 | -29.74137 | 142.43178 | 32101 ft | 341 kts | 305° |
| 2026-05-04 04:25 | -29.71352 | 142.38752 | 32107 ft | 341 kts | 305° |
| 2026-05-04 04:26 | -29.68567 | 142.34330 | 32107 ft | 341 kts | 305° |
| 2026-05-04 04:26 | -29.65783 | 142.29915 | 32106 ft | 339 kts | 304° |
| 2026-05-04 04:27 | -29.63020 | 142.25538 | 32104 ft | 338 kts | 304° |
| 2026-05-04 04:27 | -29.60253 | 142.21157 | 32110 ft | 339 kts | 305° |
| 2026-05-04 04:28 | -29.57483 | 142.16777 | 32110 ft | 339 kts | 305° |
| 2026-05-04 04:28 | -29.54728 | 142.12427 | 32112 ft | 339 kts | 305° |
| 2026-05-04 04:29 | -29.51954 | 142.08051 | 32107 ft | 339 kts | 305° |
| 2026-05-04 04:29 | -29.49176 | 142.03673 | 32103 ft | 339 kts | 305° |
| 2026-05-04 04:30 | -29.46399 | 141.99301 | 32114 ft | 339 kts | 305° |
| 2026-05-04 04:30 | -29.43616 | 141.94926 | 32114 ft | 339 kts | 305° |
| 2026-05-04 04:31 | -29.40835 | 141.90556 | 32107 ft | 339 kts | 305° |
| 2026-05-04 04:31 | -29.38054 | 141.86193 | 32111 ft | 339 kts | 305° |
| 2026-05-04 04:32 | -29.35288 | 141.81856 | 32115 ft | 339 kts | 305° |
| 2026-05-04 04:32 | -29.32503 | 141.77495 | 32113 ft | 339 kts | 305° |
| 2026-05-04 04:33 | -29.29706 | 141.73119 | 32114 ft | 340 kts | 305° |
| 2026-05-04 04:33 | -29.26912 | 141.68753 | 32117 ft | 340 kts | 305° |
| 2026-05-04 04:34 | -29.24115 | 141.64387 | 32117 ft | 340 kts | 305° |
| 2026-05-04 04:34 | -29.21318 | 141.60026 | 32118 ft | 340 kts | 305° |
| 2026-05-04 04:35 | -29.18542 | 141.55702 | 32116 ft | 338 kts | 305° |
| 2026-05-04 04:35 | -29.15769 | 141.51387 | 32118 ft | 335 kts | 305° |
| 2026-05-04 04:36 | -29.13007 | 141.47095 | 32119 ft | 335 kts | 305° |
| 2026-05-04 04:36 | -29.10246 | 141.42806 | 32119 ft | 335 kts | 305° |
| 2026-05-04 04:37 | -29.04717 | 141.34233 | 32125 ft | 335 kts | 305° |
| 2026-05-04 04:38 | -29.01962 | 141.29966 | 32117 ft | 335 kts | 305° |
| 2026-05-04 04:38 | -28.99642 | 141.26379 | 32116 ft | 335 kts | 305° |
| 2026-05-04 04:39 | -28.96865 | 141.22089 | 32121 ft | 335 kts | 305° |
| 2026-05-04 04:39 | -28.94105 | 141.17828 | 32122 ft | 335 kts | 305° |
| 2026-05-04 04:40 | -28.91328 | 141.13547 | 32121 ft | 335 kts | 305° |
| 2026-05-04 04:40 | -28.88550 | 141.09268 | 32121 ft | 336 kts | 305° |
| 2026-05-04 04:41 | -28.85760 | 141.04974 | 32121 ft | 337 kts | 305° |
| 2026-05-04 04:41 | -28.82970 | 141.00685 | 32121 ft | 337 kts | 305° |
| 2026-05-04 04:42 | -28.80195 | 140.96423 | 32127 ft | 337 kts | 305° |
| 2026-05-04 04:42 | -28.77403 | 140.92140 | 32127 ft | 337 kts | 305° |
| 2026-05-04 04:43 | -28.74608 | 140.87857 | 32124 ft | 337 kts | 306° |
| 2026-05-04 04:43 | -28.71810 | 140.83572 | 32102 ft | 337 kts | 306° |
| 2026-05-04 04:44 | -28.69021 | 140.79307 | 32123 ft | 334 kts | 306° |
| 2026-05-04 04:44 | -28.66244 | 140.75065 | 32124 ft | 334 kts | 306° |
| 2026-05-04 04:45 | -28.63471 | 140.70832 | 32125 ft | 333 kts | 306° |
| 2026-05-04 04:47 | -28.53735 | 140.56003 | 32128 ft | 335 kts | 306° |
| 2026-05-04 04:47 | -28.50942 | 140.51759 | 32133 ft | 335 kts | 306° |
| 2026-05-04 04:48 | -28.48167 | 140.47547 | 32129 ft | 335 kts | 306° |
| 2026-05-04 04:49 | -28.41175 | 140.36950 | 32130 ft | 335 kts | 306° |
| 2026-05-04 04:49 | -28.38376 | 140.32717 | 32131 ft | 335 kts | 306° |
| 2026-05-04 04:50 | -28.35576 | 140.28486 | 32133 ft | 335 kts | 306° |
| 2026-05-04 04:50 | -28.32776 | 140.24258 | 32131 ft | 335 kts | 306° |
| 2026-05-04 04:51 | -28.29974 | 140.20031 | 32132 ft | 335 kts | 306° |
| 2026-05-04 04:51 | -28.27165 | 140.15800 | 32129 ft | 337 kts | 306° |
| 2026-05-04 04:52 | -28.24363 | 140.11582 | 32134 ft | 337 kts | 306° |
| 2026-05-04 04:52 | -28.21548 | 140.07349 | 32135 ft | 335 kts | 306° |
| 2026-05-04 04:53 | -28.18744 | 140.03138 | 32136 ft | 334 kts | 306° |
| 2026-05-04 04:53 | -28.15941 | 139.98931 | 32135 ft | 334 kts | 306° |
| 2026-05-04 04:54 | -28.13136 | 139.94725 | 32132 ft | 335 kts | 306° |
| 2026-05-04 04:54 | -28.10325 | 139.90513 | 32135 ft | 335 kts | 306° |
| 2026-05-04 04:55 | -28.07509 | 139.86301 | 32136 ft | 335 kts | 306° |
| 2026-05-04 04:55 | -28.04692 | 139.82089 | 32136 ft | 335 kts | 306° |
| 2026-05-04 04:56 | -28.01875 | 139.77882 | 32142 ft | 335 kts | 306° |
| 2026-05-04 04:56 | -27.99053 | 139.73671 | 32143 ft | 336 kts | 306° |
| 2026-05-04 04:57 | -27.96222 | 139.69452 | 32138 ft | 337 kts | 306° |
| 2026-05-04 04:57 | -27.93382 | 139.65223 | 32139 ft | 337 kts | 306° |
| 2026-05-04 04:58 | -27.90548 | 139.61006 | 32138 ft | 337 kts | 306° |
| 2026-05-04 04:58 | -27.87703 | 139.56779 | 32139 ft | 337 kts | 306° |
| 2026-05-04 04:59 | -27.84861 | 139.52560 | 32138 ft | 337 kts | 306° |
| 2026-05-04 04:59 | -27.82033 | 139.48365 | 32136 ft | 338 kts | 306° |
| 2026-05-04 05:00 | -27.79174 | 139.44128 | 32135 ft | 339 kts | 306° |
| 2026-05-04 05:01 | -27.74887 | 139.37785 | 32142 ft | 337 kts | 306° |
| 2026-05-04 05:01 | -27.72046 | 139.33585 | 32141 ft | 335 kts | 306° |
| 2026-05-04 05:02 | -27.69215 | 139.29403 | 32141 ft | 335 kts | 306° |
| 2026-05-04 05:02 | -27.66396 | 139.25244 | 32144 ft | 335 kts | 306° |
| 2026-05-04 05:03 | -27.63554 | 139.21055 | 32146 ft | 335 kts | 307° |
| 2026-05-04 05:04 | -27.57877 | 139.12700 | 32142 ft | 335 kts | 307° |
| 2026-05-04 05:04 | -27.55037 | 139.08525 | 32136 ft | 335 kts | 307° |
| 2026-05-04 05:06 | -27.43676 | 138.91867 | 32142 ft | 336 kts | 307° |
| 2026-05-04 05:07 | -27.40826 | 138.87698 | 32128 ft | 336 kts | 307° |
| 2026-05-04 05:07 | -27.37970 | 138.83524 | 32138 ft | 337 kts | 307° |
| 2026-05-04 05:09 | -27.25067 | 138.64719 | 32144 ft | 335 kts | 307° |
| 2026-05-04 05:10 | -27.22214 | 138.60571 | 32144 ft | 336 kts | 307° |
| 2026-05-04 05:10 | -27.19356 | 138.56420 | 32144 ft | 336 kts | 307° |
| 2026-05-04 05:11 | -27.16496 | 138.52271 | 32140 ft | 336 kts | 307° |
| 2026-05-04 05:11 | -27.13650 | 138.48145 | 32141 ft | 336 kts | 307° |
| 2026-05-04 05:12 | -27.10786 | 138.43997 | 32140 ft | 336 kts | 307° |
| 2026-05-04 05:12 | -27.07911 | 138.39838 | 32143 ft | 338 kts | 307° |
| 2026-05-04 05:13 | -27.05023 | 138.35662 | 32144 ft | 339 kts | 307° |
| 2026-05-04 05:13 | -27.02134 | 138.31490 | 32142 ft | 339 kts | 307° |
| 2026-05-04 05:14 | -26.99242 | 138.27317 | 32147 ft | 339 kts | 307° |
| 2026-05-04 05:14 | -26.96352 | 138.23152 | 32147 ft | 338 kts | 307° |
| 2026-05-04 05:15 | -26.93456 | 138.18981 | 32148 ft | 340 kts | 307° |
| 2026-05-04 05:15 | -26.90551 | 138.14802 | 32149 ft | 340 kts | 307° |
| 2026-05-04 05:16 | -26.87645 | 138.10625 | 32148 ft | 340 kts | 307° |
| 2026-05-04 05:16 | -26.84752 | 138.06472 | 32148 ft | 340 kts | 307° |
| 2026-05-04 05:17 | -26.81842 | 138.02298 | 32146 ft | 340 kts | 307° |
| 2026-05-04 05:17 | -26.78939 | 137.98138 | 32146 ft | 338 kts | 307° |
| 2026-05-04 05:18 | -26.76043 | 137.93991 | 32145 ft | 338 kts | 307° |
| 2026-05-04 05:18 | -26.73149 | 137.89851 | 32146 ft | 338 kts | 307° |
| 2026-05-04 05:19 | -26.70254 | 137.85714 | 32149 ft | 338 kts | 307° |
| 2026-05-04 05:19 | -26.67360 | 137.81583 | 32149 ft | 338 kts | 307° |
| 2026-05-04 05:20 | -26.64455 | 137.77439 | 32150 ft | 338 kts | 307° |
| 2026-05-04 05:20 | -26.61563 | 137.73318 | 32146 ft | 339 kts | 307° |
| 2026-05-04 05:21 | -26.58651 | 137.69171 | 32148 ft | 339 kts | 307° |
| 2026-05-04 05:21 | -26.55733 | 137.65021 | 32148 ft | 339 kts | 307° |
| 2026-05-04 05:22 | -26.52822 | 137.60883 | 32149 ft | 339 kts | 307° |
| 2026-05-04 05:22 | -26.49919 | 137.56761 | 32148 ft | 340 kts | 307° |
| 2026-05-04 05:23 | -26.46992 | 137.52609 | 32148 ft | 340 kts | 307° |
| 2026-05-04 05:23 | -26.44061 | 137.48455 | 32148 ft | 340 kts | 307° |
| 2026-05-04 05:24 | -26.41621 | 137.45000 | 32149 ft | 340 kts | 307° |
| 2026-05-04 05:24 | -26.38215 | 137.40181 | 32149 ft | 340 kts | 307° |
| 2026-05-04 05:25 | -26.35753 | 137.36701 | 32146 ft | 341 kts | 307° |
| 2026-05-04 05:25 | -26.32813 | 137.32549 | 32146 ft | 340 kts | 307° |
| 2026-05-04 05:26 | -26.29891 | 137.28426 | 32147 ft | 338 kts | 307° |
| 2026-05-04 05:26 | -26.26990 | 137.24337 | 32145 ft | 338 kts | 307° |
| 2026-05-04 05:28 | -26.15301 | 137.07894 | 32148 ft | 338 kts | 307° |
| 2026-05-04 05:29 | -26.12380 | 137.03795 | 32141 ft | 338 kts | 307° |
| 2026-05-04 05:29 | -26.09450 | 136.99687 | 32144 ft | 338 kts | 307° |
| 2026-05-04 05:31 | -25.97697 | 136.83244 | 32148 ft | 340 kts | 307° |
| 2026-05-04 05:32 | -25.94775 | 136.79165 | 32148 ft | 340 kts | 307° |
| 2026-05-04 05:33 | -25.90363 | 136.73013 | 32147 ft | 342 kts | 307° |
| 2026-05-04 05:33 | -25.87393 | 136.68878 | 32139 ft | 342 kts | 307° |
| 2026-05-04 05:34 | -25.84438 | 136.64768 | 32144 ft | 338 kts | 307° |
| 2026-05-04 05:34 | -25.81506 | 136.60694 | 32145 ft | 337 kts | 307° |
| 2026-05-04 05:35 | -25.78576 | 136.56625 | 32148 ft | 337 kts | 307° |
| 2026-05-04 05:35 | -25.75644 | 136.52557 | 32146 ft | 338 kts | 307° |
| 2026-05-04 05:36 | -25.72739 | 136.48532 | 32145 ft | 334 kts | 307° |
| 2026-05-04 05:36 | -25.69946 | 136.44399 | 32145 ft | 338 kts | 305° |
| 2026-05-04 05:37 | -25.67186 | 136.40176 | 32146 ft | 338 kts | 305° |
| 2026-05-04 05:37 | -25.64416 | 136.35967 | 32142 ft | 338 kts | 305° |
| 2026-05-04 05:38 | -25.60238 | 136.29647 | 32148 ft | 339 kts | 305° |
| 2026-05-04 05:38 | -25.57448 | 136.25432 | 32149 ft | 339 kts | 305° |
| 2026-05-04 05:39 | -25.53260 | 136.19116 | 32146 ft | 339 kts | 305° |
| 2026-05-04 05:40 | -25.49080 | 136.12819 | 32147 ft | 341 kts | 305° |
| 2026-05-04 05:40 | -25.46267 | 136.08588 | 32146 ft | 341 kts | 305° |
| 2026-05-04 05:41 | -25.43446 | 136.04348 | 32146 ft | 342 kts | 305° |
| 2026-05-04 05:41 | -25.40627 | 136.00113 | 32145 ft | 342 kts | 305° |
| 2026-05-04 05:42 | -25.37805 | 135.95879 | 32144 ft | 342 kts | 305° |
| 2026-05-04 05:42 | -25.34977 | 135.91640 | 32146 ft | 342 kts | 305° |
| 2026-05-04 05:43 | -25.32164 | 135.87425 | 32145 ft | 343 kts | 305° |
| 2026-05-04 05:45 | -25.20808 | 135.70455 | 32143 ft | 345 kts | 305° |
| 2026-05-04 05:47 | -25.09357 | 135.53404 | 32144 ft | 347 kts | 305° |
| 2026-05-04 05:47 | -25.06481 | 135.49130 | 32143 ft | 347 kts | 305° |
| 2026-05-04 05:48 | -25.03596 | 135.44848 | 32143 ft | 347 kts | 305° |
| 2026-05-04 05:48 | -25.00710 | 135.40568 | 32142 ft | 347 kts | 305° |
| 2026-05-04 05:49 | -24.97825 | 135.36292 | 32140 ft | 348 kts | 305° |
| 2026-05-04 05:49 | -24.94932 | 135.32010 | 32141 ft | 349 kts | 305° |
| 2026-05-04 05:51 | -24.83361 | 135.14918 | 32142 ft | 344 kts | 305° |
| 2026-05-04 05:52 | -24.80500 | 135.10701 | 32142 ft | 344 kts | 305° |
| 2026-05-04 05:52 | -24.77634 | 135.06479 | 32143 ft | 344 kts | 305° |
| 2026-05-04 05:54 | -24.66071 | 134.89488 | 32138 ft | 352 kts | 305° |
| 2026-05-04 05:55 | -24.63131 | 134.85178 | 32135 ft | 352 kts | 305° |
| 2026-05-04 05:55 | -24.60208 | 134.80898 | 32140 ft | 347 kts | 305° |
| 2026-05-04 05:56 | -24.57319 | 134.76669 | 32150 ft | 346 kts | 305° |
| 2026-05-04 05:56 | -24.54427 | 134.72440 | 32137 ft | 346 kts | 305° |
| 2026-05-04 05:57 | -24.51539 | 134.68220 | 32134 ft | 346 kts | 305° |
| 2026-05-04 05:57 | -24.48668 | 134.64029 | 31846 ft | 336 kts | 305° |
| 2026-05-04 05:58 | -24.47275 | 134.61998 | 31408 ft | 333 kts | 305° |
| 2026-05-04 05:58 | -24.45864 | 134.59938 | 30938 ft | 344 kts | 305° |
| 2026-05-04 05:58 | -24.44409 | 134.57817 | 30410 ft | 351 kts | 305° |
| 2026-05-04 05:58 | -24.42926 | 134.55654 | 29822 ft | 356 kts | 305° |
| 2026-05-04 05:59 | -24.41429 | 134.53474 | 29210 ft | 360 kts | 305° |
| 2026-05-04 05:59 | -24.39936 | 134.51302 | 28664 ft | 364 kts | 305° |
| 2026-05-04 05:59 | -24.38405 | 134.49074 | 28061 ft | 367 kts | 305° |
| 2026-05-04 05:59 | -24.36856 | 134.46821 | 27439 ft | 371 kts | 305° |
| 2026-05-04 06:00 | -24.35291 | 134.44546 | 26820 ft | 376 kts | 305° |
| 2026-05-04 06:00 | -24.33715 | 134.42257 | 26304 ft | 377 kts | 305° |
| 2026-05-04 06:00 | -24.32132 | 134.39958 | 25822 ft | 377 kts | 305° |
| 2026-05-04 06:00 | -24.30552 | 134.37665 | 25309 ft | 376 kts | 305° |
| 2026-05-04 06:01 | -24.28972 | 134.35374 | 24805 ft | 376 kts | 305° |
| 2026-05-04 06:01 | -24.27397 | 134.33089 | 24282 ft | 376 kts | 305° |
| 2026-05-04 06:03 | -24.16477 | 134.17282 | 20677 ft | 365 kts | 306° |
| 2026-05-04 06:03 | -24.14947 | 134.15071 | 20181 ft | 363 kts | 306° |